Latest Weather Forecast - Tuesday 10th September 2019 (12pm)

Forecast Period:  12 pm 10th September 2019 to 6:00 pm 10th September  2019 
Synopsis: Weak unstable conditions are approaching the islands
Forecast: Partly cloudy and sunny; becoming partly cloudy to cloudy with scattered showers by evening

Weather 
Advisory/Warning:

None

Winds: Easterly at 15 to 30 km/h ( 9 to 19 mph)
Sea Conditions: Slight to moderate in open water; with swells 1.0 m to 1.5 m
Marine 
Advisory/Warning:

None

Upcoming Tides:
 High: 2:47 pm 4:27 am    
Low: 11:05 pm  

Aviation WX

[Source: ADDS]
METAR
TVSA 261300Z 09004KT 040V140 9999 VCSH BKN018 27/22 Q1016 NOSIG =
TVSA 261100Z 2612/2712 06008KT 9999 SCT018 TEMPO 2612/2622 SHRA BKN015 SCT036
TAF
TVSA 261100Z 2612/2712 06008KT 9999 SCT018 TEMPO 2612/2622 SHRA BKN015 SCT036 =
SR / SS: 10:22 / 22:12 UTC (Sunrise Sunset 2020-02-26)